sensor_id;sensor_type;location;lat;lon;timestamp;temperature;humidity
20946;DHT22;10632;51.276;7.116;2024-01-25T00:00:38;7.10;99.90
20946;DHT22;10632;51.276;7.116;2024-01-25T00:03:06;7.20;99.90
20946;DHT22;10632;51.276;7.116;2024-01-25T00:05:33;7.20;99.90
20946;DHT22;10632;51.276;7.116;2024-01-25T00:08:00;7.20;99.90
20946;DHT22;10632;51.276;7.116;2024-01-25T00:10:27;7.10;99.90
20946;DHT22;10632;51.276;7.116;2024-01-25T00:12:54;7.10;99.90
20946;DHT22;10632;51.276;7.116;2024-01-25T00:15:21;7.10;99.90
20946;DHT22;10632;51.276;7.116;2024-01-25T00:17:48;7.10;99.90
20946;DHT22;10632;51.276;7.116;2024-01-25T00:20:16;7.10;99.90
20946;DHT22;10632;51.276;7.116;2024-01-25T00:22:43;7.20;99.90
20946;DHT22;10632;51.276;7.116;2024-01-25T00:25:11;7.20;99.90
20946;DHT22;10632;51.276;7.116;2024-01-25T00:27:37;7.20;99.90
20946;DHT22;10632;51.276;7.116;2024-01-25T00:30:05;7.20;99.90
20946;DHT22;10632;51.276;7.116;2024-01-25T00:32:32;7.20;99.90
20946;DHT22;10632;51.276;7.116;2024-01-25T00:34:59;7.10;99.90
20946;DHT22;10632;51.276;7.116;2024-01-25T00:37:28;7.10;99.90
20946;DHT22;10632;51.276;7.116;2024-01-25T00:39:56;7.10;99.90
20946;DHT22;10632;51.276;7.116;2024-01-25T00:42:25;7.10;99.90
20946;DHT22;10632;51.276;7.116;2024-01-25T00:44:53;7.10;99.90
20946;DHT22;10632;51.276;7.116;2024-01-25T00:47:20;7.10;99.90
20946;DHT22;10632;51.276;7.116;2024-01-25T00:49:48;7.10;99.90
20946;DHT22;10632;51.276;7.116;2024-01-25T00:52:15;7.10;99.90
20946;DHT22;10632;51.276;7.116;2024-01-25T00:54:44;7.10;99.90
20946;DHT22;10632;51.276;7.116;2024-01-25T00:57:12;7.10;99.90
20946;DHT22;10632;51.276;7.116;2024-01-25T00:59:39;7.10;99.90
20946;DHT22;10632;51.276;7.116;2024-01-25T01:02:10;7.10;99.90
20946;DHT22;10632;51.276;7.116;2024-01-25T01:04:38;7.10;99.90
20946;DHT22;10632;51.276;7.116;2024-01-25T01:07:09;7.10;99.90
20946;DHT22;10632;51.276;7.116;2024-01-25T01:09:38;7.10;99.90
20946;DHT22;10632;51.276;7.116;2024-01-25T01:12:07;7.10;99.90
20946;DHT22;10632;51.276;7.116;2024-01-25T01:14:34;7.10;99.90
20946;DHT22;10632;51.276;7.116;2024-01-25T01:17:01;7.00;99.90
20946;DHT22;10632;51.276;7.116;2024-01-25T01:19:28;7.00;99.90
20946;DHT22;10632;51.276;7.116;2024-01-25T01:22:00;7.00;99.90
20946;DHT22;10632;51.276;7.116;2024-01-25T01:24:29;6.90;99.90
20946;DHT22;10632;51.276;7.116;2024-01-25T01:26:56;6.90;99.90
20946;DHT22;10632;51.276;7.116;2024-01-25T01:29:25;6.80;99.90
20946;DHT22;10632;51.276;7.116;2024-01-25T01:31:52;6.80;99.90
20946;DHT22;10632;51.276;7.116;2024-01-25T01:34:19;6.80;99.90
20946;DHT22;10632;51.276;7.116;2024-01-25T01:36:46;6.70;99.90
20946;DHT22;10632;51.276;7.116;2024-01-25T01:39:13;6.70;99.90
20946;DHT22;10632;51.276;7.116;2024-01-25T01:41:39;6.70;99.90
20946;DHT22;10632;51.276;7.116;2024-01-25T01:44:09;6.70;99.90
20946;DHT22;10632;51.276;7.116;2024-01-25T01:46:37;6.70;99.90
20946;DHT22;10632;51.276;7.116;2024-01-25T01:49:07;6.60;99.90
20946;DHT22;10632;51.276;7.116;2024-01-25T01:51:35;6.60;99.90
20946;DHT22;10632;51.276;7.116;2024-01-25T01:54:02;6.60;99.90
20946;DHT22;10632;51.276;7.116;2024-01-25T01:56:29;6.60;99.90
20946;DHT22;10632;51.276;7.116;2024-01-25T01:58:57;6.60;99.90
20946;DHT22;10632;51.276;7.116;2024-01-25T02:01:24;6.60;99.90
20946;DHT22;10632;51.276;7.116;2024-01-25T02:03:53;6.60;99.90
20946;DHT22;10632;51.276;7.116;2024-01-25T02:06:21;6.60;99.90
20946;DHT22;10632;51.276;7.116;2024-01-25T02:08:50;6.60;99.90
20946;DHT22;10632;51.276;7.116;2024-01-25T02:11:18;6.60;99.90
20946;DHT22;10632;51.276;7.116;2024-01-25T02:13:45;6.60;99.90
20946;DHT22;10632;51.276;7.116;2024-01-25T02:16:13;6.50;99.90
20946;DHT22;10632;51.276;7.116;2024-01-25T02:18:41;6.50;99.90
20946;DHT22;10632;51.276;7.116;2024-01-25T02:21:09;6.50;99.90
20946;DHT22;10632;51.276;7.116;2024-01-25T02:23:37;6.50;99.90
20946;DHT22;10632;51.276;7.116;2024-01-25T02:26:04;6.50;99.90
20946;DHT22;10632;51.276;7.116;2024-01-25T02:28:31;6.50;99.90
20946;DHT22;10632;51.276;7.116;2024-01-25T02:31:01;6.50;99.90
20946;DHT22;10632;51.276;7.116;2024-01-25T02:33:28;6.50;99.90
20946;DHT22;10632;51.276;7.116;2024-01-25T02:35:55;6.50;99.90
20946;DHT22;10632;51.276;7.116;2024-01-25T02:38:22;6.50;99.90
20946;DHT22;10632;51.276;7.116;2024-01-25T02:40:53;6.50;99.90
20946;DHT22;10632;51.276;7.116;2024-01-25T02:43:20;6.50;99.90
20946;DHT22;10632;51.276;7.116;2024-01-25T02:46:00;6.50;99.90
20946;DHT22;10632;51.276;7.116;2024-01-25T02:48:41;6.50;99.90
20946;DHT22;10632;51.276;7.116;2024-01-25T02:51:08;6.50;99.90
20946;DHT22;10632;51.276;7.116;2024-01-25T02:53:37;6.50;99.90
20946;DHT22;10632;51.276;7.116;2024-01-25T02:56:06;6.50;99.90
20946;DHT22;10632;51.276;7.116;2024-01-25T02:58:33;6.50;99.90
20946;DHT22;10632;51.276;7.116;2024-01-25T03:01:00;6.40;99.90
20946;DHT22;10632;51.276;7.116;2024-01-25T03:03:27;6.40;99.90
20946;DHT22;10632;51.276;7.116;2024-01-25T03:05:54;6.40;99.90
20946;DHT22;10632;51.276;7.116;2024-01-25T03:08:21;6.40;99.90
20946;DHT22;10632;51.276;7.116;2024-01-25T03:10:48;6.40;99.90
20946;DHT22;10632;51.276;7.116;2024-01-25T03:13:17;6.40;99.90
20946;DHT22;10632;51.276;7.116;2024-01-25T03:15:44;6.40;99.90
20946;DHT22;10632;51.276;7.116;2024-01-25T03:18:11;6.30;99.90
20946;DHT22;10632;51.276;7.116;2024-01-25T03:20:38;6.30;99.90
20946;DHT22;10632;51.276;7.116;2024-01-25T03:23:05;6.30;99.90
20946;DHT22;10632;51.276;7.116;2024-01-25T03:25:35;6.30;99.90
20946;DHT22;10632;51.276;7.116;2024-01-25T03:28:02;6.30;99.90
20946;DHT22;10632;51.276;7.116;2024-01-25T03:30:34;6.30;99.90
20946;DHT22;10632;51.276;7.116;2024-01-25T03:33:01;6.30;99.90
20946;DHT22;10632;51.276;7.116;2024-01-25T03:35:27;6.30;99.90
20946;DHT22;10632;51.276;7.116;2024-01-25T03:37:54;6.30;99.90
20946;DHT22;10632;51.276;7.116;2024-01-25T03:40:21;6.30;99.90
20946;DHT22;10632;51.276;7.116;2024-01-25T03:42:48;6.20;99.90
20946;DHT22;10632;51.276;7.116;2024-01-25T03:45:15;6.20;99.90
20946;DHT22;10632;51.276;7.116;2024-01-25T03:47:43;6.20;99.90
20946;DHT22;10632;51.276;7.116;2024-01-25T03:50:11;6.20;99.90
20946;DHT22;10632;51.276;7.116;2024-01-25T03:52:38;6.20;99.90
20946;DHT22;10632;51.276;7.116;2024-01-25T03:55:06;6.10;99.90
20946;DHT22;10632;51.276;7.116;2024-01-25T03:57:33;6.10;99.90
20946;DHT22;10632;51.276;7.116;2024-01-25T04:00:02;6.10;99.90
20946;DHT22;10632;51.276;7.116;2024-01-25T04:02:31;6.10;99.90
20946;DHT22;10632;51.276;7.116;2024-01-25T04:05:03;6.10;99.90
20946;DHT22;10632;51.276;7.116;2024-01-25T04:07:30;6.00;99.90
20946;DHT22;10632;51.276;7.116;2024-01-25T04:10:16;6.00;99.90
20946;DHT22;10632;51.276;7.116;2024-01-25T04:12:57;6.00;99.90
20946;DHT22;10632;51.276;7.116;2024-01-25T04:15:25;6.00;99.90
20946;DHT22;10632;51.276;7.116;2024-01-25T04:17:52;5.90;99.90
20946;DHT22;10632;51.276;7.116;2024-01-25T04:20:22;5.90;99.90
20946;DHT22;10632;51.276;7.116;2024-01-25T04:22:49;6.00;99.90
20946;DHT22;10632;51.276;7.116;2024-01-25T04:25:16;5.80;99.90
20946;DHT22;10632;51.276;7.116;2024-01-25T04:27:43;5.80;99.90
20946;DHT22;10632;51.276;7.116;2024-01-25T04:30:11;5.80;99.90
20946;DHT22;10632;51.276;7.116;2024-01-25T04:32:38;5.80;99.90
20946;DHT22;10632;51.276;7.116;2024-01-25T04:35:06;5.70;99.90
20946;DHT22;10632;51.276;7.116;2024-01-25T04:37:36;5.70;99.90
20946;DHT22;10632;51.276;7.116;2024-01-25T04:40:05;5.70;99.90
20946;DHT22;10632;51.276;7.116;2024-01-25T04:42:33;5.70;99.90
20946;DHT22;10632;51.276;7.116;2024-01-25T04:45:00;5.60;99.90
20946;DHT22;10632;51.276;7.116;2024-01-25T04:47:27;5.60;99.90
20946;DHT22;10632;51.276;7.116;2024-01-25T04:49:56;5.60;99.90
20946;DHT22;10632;51.276;7.116;2024-01-25T04:52:23;5.60;99.90
20946;DHT22;10632;51.276;7.116;2024-01-25T04:54:57;5.50;99.90
20946;DHT22;10632;51.276;7.116;2024-01-25T04:57:25;5.50;99.90
20946;DHT22;10632;51.276;7.116;2024-01-25T04:59:52;5.40;99.90
20946;DHT22;10632;51.276;7.116;2024-01-25T05:02:21;5.40;99.90
20946;DHT22;10632;51.276;7.116;2024-01-25T05:04:48;5.40;99.90
20946;DHT22;10632;51.276;7.116;2024-01-25T05:07:16;5.40;99.90
20946;DHT22;10632;51.276;7.116;2024-01-25T05:09:43;5.30;99.90
20946;DHT22;10632;51.276;7.116;2024-01-25T05:12:24;5.30;99.90
20946;DHT22;10632;51.276;7.116;2024-01-25T05:14:59;5.30;99.90
20946;DHT22;10632;51.276;7.116;2024-01-25T05:17:27;5.30;99.90
20946;DHT22;10632;51.276;7.116;2024-01-25T05:19:54;5.30;99.90
20946;DHT22;10632;51.276;7.116;2024-01-25T05:22:21;5.20;99.90
20946;DHT22;10632;51.276;7.116;2024-01-25T05:24:49;5.20;99.90
20946;DHT22;10632;51.276;7.116;2024-01-25T05:27:16;5.20;99.90
20946;DHT22;10632;51.276;7.116;2024-01-25T05:29:44;5.20;99.90
20946;DHT22;10632;51.276;7.116;2024-01-25T05:32:11;5.20;99.90
20946;DHT22;10632;51.276;7.116;2024-01-25T05:34:40;5.20;99.90
20946;DHT22;10632;51.276;7.116;2024-01-25T05:37:07;5.10;99.90
20946;DHT22;10632;51.276;7.116;2024-01-25T05:39:34;5.10;99.90
20946;DHT22;10632;51.276;7.116;2024-01-25T05:42:02;5.10;99.90
20946;DHT22;10632;51.276;7.116;2024-01-25T05:44:29;5.10;99.90
20946;DHT22;10632;51.276;7.116;2024-01-25T05:46:58;5.10;99.90
20946;DHT22;10632;51.276;7.116;2024-01-25T05:49:30;5.10;99.90
20946;DHT22;10632;51.276;7.116;2024-01-25T05:51:57;5.10;99.90
20946;DHT22;10632;51.276;7.116;2024-01-25T05:54:24;5.10;99.90
20946;DHT22;10632;51.276;7.116;2024-01-25T05:56:52;5.10;99.90
20946;DHT22;10632;51.276;7.116;2024-01-25T05:59:19;5.10;99.90
20946;DHT22;10632;51.276;7.116;2024-01-25T06:01:46;5.10;99.90
20946;DHT22;10632;51.276;7.116;2024-01-25T06:04:17;5.00;99.90
20946;DHT22;10632;51.276;7.116;2024-01-25T06:06:47;5.00;99.90
20946;DHT22;10632;51.276;7.116;2024-01-25T06:09:14;5.10;99.90
20946;DHT22;10632;51.276;7.116;2024-01-25T06:11:41;5.00;99.90
20946;DHT22;10632;51.276;7.116;2024-01-25T06:14:08;5.00;99.90
20946;DHT22;10632;51.276;7.116;2024-01-25T06:16:35;5.00;99.90
20946;DHT22;10632;51.276;7.116;2024-01-25T06:19:03;5.10;99.90
20946;DHT22;10632;51.276;7.116;2024-01-25T06:21:31;5.00;99.90
20946;DHT22;10632;51.276;7.116;2024-01-25T06:23:59;5.00;99.90
20946;DHT22;10632;51.276;7.116;2024-01-25T06:26:26;5.00;99.90
20946;DHT22;10632;51.276;7.116;2024-01-25T06:28:53;5.00;99.90
20946;DHT22;10632;51.276;7.116;2024-01-25T06:31:22;5.00;99.90
20946;DHT22;10632;51.276;7.116;2024-01-25T06:33:54;5.00;99.90
20946;DHT22;10632;51.276;7.116;2024-01-25T06:36:24;5.00;99.90
20946;DHT22;10632;51.276;7.116;2024-01-25T06:38:53;5.00;99.90
20946;DHT22;10632;51.276;7.116;2024-01-25T06:41:20;5.00;99.90
20946;DHT22;10632;51.276;7.116;2024-01-25T06:43:47;5.00;99.90
20946;DHT22;10632;51.276;7.116;2024-01-25T06:46:14;5.00;99.90
20946;DHT22;10632;51.276;7.116;2024-01-25T06:48:41;5.00;99.90
20946;DHT22;10632;51.276;7.116;2024-01-25T06:51:08;5.00;99.90
20946;DHT22;10632;51.276;7.116;2024-01-25T06:53:34;4.90;99.90
20946;DHT22;10632;51.276;7.116;2024-01-25T06:56:03;4.90;99.90
20946;DHT22;10632;51.276;7.116;2024-01-25T06:58:30;4.90;99.90
20946;DHT22;10632;51.276;7.116;2024-01-25T07:01:02;4.90;99.90
20946;DHT22;10632;51.276;7.116;2024-01-25T07:03:32;4.90;99.90
20946;DHT22;10632;51.276;7.116;2024-01-25T07:05:59;4.90;99.90
20946;DHT22;10632;51.276;7.116;2024-01-25T07:08:26;4.90;99.90
20946;DHT22;10632;51.276;7.116;2024-01-25T07:10:53;4.90;99.90
20946;DHT22;10632;51.276;7.116;2024-01-25T07:13:25;4.90;99.90
20946;DHT22;10632;51.276;7.116;2024-01-25T07:15:52;4.90;99.90
20946;DHT22;10632;51.276;7.116;2024-01-25T07:18:19;4.80;99.90
20946;DHT22;10632;51.276;7.116;2024-01-25T07:20:46;4.90;99.90
20946;DHT22;10632;51.276;7.116;2024-01-25T07:23:13;4.90;99.90
20946;DHT22;10632;51.276;7.116;2024-01-25T07:25:40;4.90;99.90
20946;DHT22;10632;51.276;7.116;2024-01-25T07:28:07;4.90;99.90
20946;DHT22;10632;51.276;7.116;2024-01-25T07:30:35;4.90;99.90
20946;DHT22;10632;51.276;7.116;2024-01-25T07:33:03;4.90;99.90
20946;DHT22;10632;51.276;7.116;2024-01-25T07:35:30;4.90;99.90
20946;DHT22;10632;51.276;7.116;2024-01-25T07:37:57;4.90;99.90
20946;DHT22;10632;51.276;7.116;2024-01-25T07:40:26;4.90;99.90
20946;DHT22;10632;51.276;7.116;2024-01-25T07:42:53;4.90;99.90
20946;DHT22;10632;51.276;7.116;2024-01-25T07:45:20;4.90;99.90
20946;DHT22;10632;51.276;7.116;2024-01-25T07:47:48;4.90;99.90
20946;DHT22;10632;51.276;7.116;2024-01-25T07:50:15;4.90;99.90
20946;DHT22;10632;51.276;7.116;2024-01-25T07:52:42;4.90;99.90
20946;DHT22;10632;51.276;7.116;2024-01-25T07:55:09;4.90;99.90
20946;DHT22;10632;51.276;7.116;2024-01-25T07:57:36;4.80;99.90
20946;DHT22;10632;51.276;7.116;2024-01-25T08:00:08;4.80;99.90
20946;DHT22;10632;51.276;7.116;2024-01-25T08:02:36;4.80;99.90
20946;DHT22;10632;51.276;7.116;2024-01-25T08:05:05;4.90;99.90
20946;DHT22;10632;51.276;7.116;2024-01-25T08:07:32;4.90;99.90
20946;DHT22;10632;51.276;7.116;2024-01-25T08:10:29;4.90;99.90
20946;DHT22;10632;51.276;7.116;2024-01-25T08:12:56;4.90;99.90
20946;DHT22;10632;51.276;7.116;2024-01-25T08:15:24;4.80;99.90
20946;DHT22;10632;51.276;7.116;2024-01-25T08:17:51;4.80;99.90
20946;DHT22;10632;51.276;7.116;2024-01-25T08:23:07;4.80;99.90
20946;DHT22;10632;51.276;7.116;2024-01-25T08:25:34;4.80;99.90
20946;DHT22;10632;51.276;7.116;2024-01-25T08:28:01;4.80;99.90
20946;DHT22;10632;51.276;7.116;2024-01-25T08:30:28;4.80;99.90
20946;DHT22;10632;51.276;7.116;2024-01-25T08:32:57;4.80;99.90
20946;DHT22;10632;51.276;7.116;2024-01-25T08:35:40;4.80;99.90
20946;DHT22;10632;51.276;7.116;2024-01-25T08:38:07;4.80;99.90
20946;DHT22;10632;51.276;7.116;2024-01-25T08:40:34;4.80;99.90
20946;DHT22;10632;51.276;7.116;2024-01-25T08:43:01;4.70;99.90
20946;DHT22;10632;51.276;7.116;2024-01-25T08:45:30;4.80;99.90
20946;DHT22;10632;51.276;7.116;2024-01-25T08:47:57;4.80;99.90
20946;DHT22;10632;51.276;7.116;2024-01-25T08:50:24;4.80;99.90
20946;DHT22;10632;51.276;7.116;2024-01-25T08:52:52;4.80;99.90
20946;DHT22;10632;51.276;7.116;2024-01-25T08:55:19;4.80;99.90
20946;DHT22;10632;51.276;7.116;2024-01-25T08:57:46;4.70;99.90
20946;DHT22;10632;51.276;7.116;2024-01-25T09:00:13;4.80;99.90
20946;DHT22;10632;51.276;7.116;2024-01-25T09:02:41;4.70;99.90
20946;DHT22;10632;51.276;7.116;2024-01-25T09:05:08;4.80;99.90
20946;DHT22;10632;51.276;7.116;2024-01-25T09:07:35;4.80;99.90
20946;DHT22;10632;51.276;7.116;2024-01-25T09:10:04;4.70;99.90
20946;DHT22;10632;51.276;7.116;2024-01-25T09:12:31;4.80;99.90
20946;DHT22;10632;51.276;7.116;2024-01-25T09:14:58;4.70;99.90
20946;DHT22;10632;51.276;7.116;2024-01-25T09:17:25;4.80;99.90
20946;DHT22;10632;51.276;7.116;2024-01-25T09:19:52;4.80;99.90
20946;DHT22;10632;51.276;7.116;2024-01-25T09:22:19;4.80;99.90
20946;DHT22;10632;51.276;7.116;2024-01-25T09:24:46;4.90;99.90
20946;DHT22;10632;51.276;7.116;2024-01-25T09:27:15;4.90;99.90
20946;DHT22;10632;51.276;7.116;2024-01-25T09:29:42;4.90;99.90
20946;DHT22;10632;51.276;7.116;2024-01-25T09:32:09;4.90;99.90
20946;DHT22;10632;51.276;7.116;2024-01-25T09:34:37;4.90;99.90
20946;DHT22;10632;51.276;7.116;2024-01-25T09:37:04;4.90;99.90
20946;DHT22;10632;51.276;7.116;2024-01-25T09:39:31;4.90;99.90
20946;DHT22;10632;51.276;7.116;2024-01-25T09:41:58;4.90;99.90
20946;DHT22;10632;51.276;7.116;2024-01-25T09:44:26;4.90;99.90
20946;DHT22;10632;51.276;7.116;2024-01-25T09:46:53;5.00;99.90
20946;DHT22;10632;51.276;7.116;2024-01-25T09:49:21;5.00;99.90
20946;DHT22;10632;51.276;7.116;2024-01-25T09:51:51;5.00;99.90
20946;DHT22;10632;51.276;7.116;2024-01-25T09:54:19;5.00;99.90
20946;DHT22;10632;51.276;7.116;2024-01-25T09:56:48;5.00;99.90
20946;DHT22;10632;51.276;7.116;2024-01-25T09:59:23;5.00;99.90
20946;DHT22;10632;51.276;7.116;2024-01-25T10:01:51;5.00;99.90
20946;DHT22;10632;51.276;7.116;2024-01-25T10:04:18;5.00;99.90
20946;DHT22;10632;51.276;7.116;2024-01-25T10:06:47;5.00;99.90
20946;DHT22;10632;51.276;7.116;2024-01-25T10:09:14;5.10;99.90
20946;DHT22;10632;51.276;7.116;2024-01-25T10:11:41;5.10;99.90
20946;DHT22;10632;51.276;7.116;2024-01-25T10:14:08;5.10;99.90
20946;DHT22;10632;51.276;7.116;2024-01-25T10:16:35;5.10;99.90
20946;DHT22;10632;51.276;7.116;2024-01-25T10:19:06;5.00;99.90
20946;DHT22;10632;51.276;7.116;2024-01-25T10:21:35;5.10;99.90
20946;DHT22;10632;51.276;7.116;2024-01-25T10:24:03;5.10;99.90
20946;DHT22;10632;51.276;7.116;2024-01-25T10:26:31;5.10;99.90
20946;DHT22;10632;51.276;7.116;2024-01-25T10:29:01;5.10;99.90
20946;DHT22;10632;51.276;7.116;2024-01-25T10:31:29;5.10;99.90
20946;DHT22;10632;51.276;7.116;2024-01-25T10:33:56;5.10;99.90
20946;DHT22;10632;51.276;7.116;2024-01-25T10:36:26;5.10;99.90
20946;DHT22;10632;51.276;7.116;2024-01-25T10:38:54;5.20;99.90
20946;DHT22;10632;51.276;7.116;2024-01-25T10:41:23;5.20;99.90
20946;DHT22;10632;51.276;7.116;2024-01-25T10:43:51;5.30;99.90
20946;DHT22;10632;51.276;7.116;2024-01-25T10:46:18;5.30;99.90
20946;DHT22;10632;51.276;7.116;2024-01-25T10:48:46;5.30;99.90
20946;DHT22;10632;51.276;7.116;2024-01-25T10:51:14;5.30;99.90
20946;DHT22;10632;51.276;7.116;2024-01-25T10:53:45;5.30;99.90
20946;DHT22;10632;51.276;7.116;2024-01-25T10:56:12;5.30;99.90
20946;DHT22;10632;51.276;7.116;2024-01-25T10:58:41;5.40;99.90
20946;DHT22;10632;51.276;7.116;2024-01-25T11:01:09;5.40;99.90
20946;DHT22;10632;51.276;7.116;2024-01-25T11:03:39;5.40;99.90
20946;DHT22;10632;51.276;7.116;2024-01-25T11:06:07;5.40;99.90
20946;DHT22;10632;51.276;7.116;2024-01-25T11:08:38;5.50;99.90
20946;DHT22;10632;51.276;7.116;2024-01-25T11:11:07;5.50;99.90
20946;DHT22;10632;51.276;7.116;2024-01-25T11:13:34;5.60;99.90
20946;DHT22;10632;51.276;7.116;2024-01-25T11:16:12;5.60;99.90
20946;DHT22;10632;51.276;7.116;2024-01-25T11:18:48;5.60;99.90
20946;DHT22;10632;51.276;7.116;2024-01-25T11:21:25;5.70;99.90
20946;DHT22;10632;51.276;7.116;2024-01-25T11:24:02;5.70;99.90
20946;DHT22;10632;51.276;7.116;2024-01-25T11:26:32;5.80;99.90
20946;DHT22;10632;51.276;7.116;2024-01-25T11:28:59;5.80;99.90
20946;DHT22;10632;51.276;7.116;2024-01-25T11:31:27;5.90;99.90
20946;DHT22;10632;51.276;7.116;2024-01-25T11:33:57;5.90;99.90
20946;DHT22;10632;51.276;7.116;2024-01-25T11:36:24;6.00;99.90
20946;DHT22;10632;51.276;7.116;2024-01-25T11:38:51;6.00;99.90
20946;DHT22;10632;51.276;7.116;2024-01-25T11:41:18;6.00;99.90
20946;DHT22;10632;51.276;7.116;2024-01-25T11:43:48;6.10;99.90
20946;DHT22;10632;51.276;7.116;2024-01-25T11:46:15;6.10;99.90
20946;DHT22;10632;51.276;7.116;2024-01-25T11:48:42;6.20;99.90
20946;DHT22;10632;51.276;7.116;2024-01-25T11:51:10;6.20;99.90
20946;DHT22;10632;51.276;7.116;2024-01-25T11:53:37;6.30;99.90
20946;DHT22;10632;51.276;7.116;2024-01-25T11:56:06;6.30;99.90
20946;DHT22;10632;51.276;7.116;2024-01-25T11:58:34;6.30;99.90
20946;DHT22;10632;51.276;7.116;2024-01-25T12:01:03;6.30;99.90
20946;DHT22;10632;51.276;7.116;2024-01-25T12:03:33;6.40;99.90
20946;DHT22;10632;51.276;7.116;2024-01-25T12:06:01;6.50;99.90
20946;DHT22;10632;51.276;7.116;2024-01-25T12:08:30;6.50;99.90
20946;DHT22;10632;51.276;7.116;2024-01-25T12:11:04;6.50;99.90
20946;DHT22;10632;51.276;7.116;2024-01-25T12:13:33;6.50;99.90
20946;DHT22;10632;51.276;7.116;2024-01-25T12:16:02;6.50;99.90
20946;DHT22;10632;51.276;7.116;2024-01-25T12:18:30;6.60;99.90
20946;DHT22;10632;51.276;7.116;2024-01-25T12:20:59;6.60;99.90
20946;DHT22;10632;51.276;7.116;2024-01-25T12:23:32;6.60;99.90
20946;DHT22;10632;51.276;7.116;2024-01-25T12:26:01;6.70;99.90
20946;DHT22;10632;51.276;7.116;2024-01-25T12:28:29;6.70;99.90
20946;DHT22;10632;51.276;7.116;2024-01-25T12:30:56;6.70;99.90
20946;DHT22;10632;51.276;7.116;2024-01-25T12:33:25;6.70;99.90
20946;DHT22;10632;51.276;7.116;2024-01-25T12:35:52;6.70;99.90
20946;DHT22;10632;51.276;7.116;2024-01-25T12:38:20;6.70;99.90
20946;DHT22;10632;51.276;7.116;2024-01-25T12:40:48;6.70;99.90
20946;DHT22;10632;51.276;7.116;2024-01-25T12:43:15;6.70;99.90
20946;DHT22;10632;51.276;7.116;2024-01-25T12:45:42;6.70;99.90
20946;DHT22;10632;51.276;7.116;2024-01-25T12:48:10;6.80;99.90
20946;DHT22;10632;51.276;7.116;2024-01-25T12:50:38;6.80;99.90
20946;DHT22;10632;51.276;7.116;2024-01-25T12:53:05;6.80;99.90
20946;DHT22;10632;51.276;7.116;2024-01-25T12:55:33;6.80;99.90
20946;DHT22;10632;51.276;7.116;2024-01-25T12:58:00;6.80;99.90
20946;DHT22;10632;51.276;7.116;2024-01-25T13:00:27;6.80;99.90
20946;DHT22;10632;51.276;7.116;2024-01-25T13:02:54;6.80;99.90
20946;DHT22;10632;51.276;7.116;2024-01-25T13:05:22;6.80;99.90
20946;DHT22;10632;51.276;7.116;2024-01-25T13:07:51;6.90;99.90
20946;DHT22;10632;51.276;7.116;2024-01-25T13:10:17;6.90;99.90
20946;DHT22;10632;51.276;7.116;2024-01-25T13:12:44;6.90;99.90
20946;DHT22;10632;51.276;7.116;2024-01-25T13:15:11;6.90;99.90
20946;DHT22;10632;51.276;7.116;2024-01-25T13:17:38;6.90;99.90
20946;DHT22;10632;51.276;7.116;2024-01-25T13:20:06;6.90;99.90
20946;DHT22;10632;51.276;7.116;2024-01-25T13:22:34;6.90;99.90
20946;DHT22;10632;51.276;7.116;2024-01-25T13:25:02;7.00;99.90
20946;DHT22;10632;51.276;7.116;2024-01-25T13:27:30;6.90;99.90
20946;DHT22;10632;51.276;7.116;2024-01-25T13:29:57;6.90;99.90
20946;DHT22;10632;51.276;7.116;2024-01-25T13:32:24;6.90;99.90
20946;DHT22;10632;51.276;7.116;2024-01-25T13:34:51;6.90;99.90
20946;DHT22;10632;51.276;7.116;2024-01-25T13:37:18;6.90;99.90
20946;DHT22;10632;51.276;7.116;2024-01-25T13:39:45;7.00;99.90
20946;DHT22;10632;51.276;7.116;2024-01-25T13:42:13;7.00;99.90
20946;DHT22;10632;51.276;7.116;2024-01-25T13:44:40;7.00;99.90
20946;DHT22;10632;51.276;7.116;2024-01-25T13:47:07;7.00;99.90
20946;DHT22;10632;51.276;7.116;2024-01-25T13:49:34;7.10;99.90
20946;DHT22;10632;51.276;7.116;2024-01-25T13:52:01;7.10;99.90
20946;DHT22;10632;51.276;7.116;2024-01-25T13:54:29;7.10;99.90
20946;DHT22;10632;51.276;7.116;2024-01-25T13:56:55;7.10;99.90
20946;DHT22;10632;51.276;7.116;2024-01-25T13:59:24;7.10;99.90
20946;DHT22;10632;51.276;7.116;2024-01-25T14:01:51;7.10;99.90
20946;DHT22;10632;51.276;7.116;2024-01-25T14:04:18;7.10;99.90
20946;DHT22;10632;51.276;7.116;2024-01-25T14:06:45;7.10;99.90
20946;DHT22;10632;51.276;7.116;2024-01-25T14:09:12;7.20;99.90
20946;DHT22;10632;51.276;7.116;2024-01-25T14:11:39;7.20;99.90
20946;DHT22;10632;51.276;7.116;2024-01-25T14:14:08;7.20;99.90
20946;DHT22;10632;51.276;7.116;2024-01-25T14:16:39;7.20;99.90
20946;DHT22;10632;51.276;7.116;2024-01-25T14:19:06;7.20;99.90
20946;DHT22;10632;51.276;7.116;2024-01-25T14:21:36;7.20;99.90
20946;DHT22;10632;51.276;7.116;2024-01-25T14:24:06;7.20;99.90
20946;DHT22;10632;51.276;7.116;2024-01-25T14:26:33;7.20;99.90
20946;DHT22;10632;51.276;7.116;2024-01-25T14:28:59;7.20;99.90
20946;DHT22;10632;51.276;7.116;2024-01-25T14:31:26;7.30;99.90
20946;DHT22;10632;51.276;7.116;2024-01-25T14:33:58;7.30;99.90
20946;DHT22;10632;51.276;7.116;2024-01-25T14:36:24;7.30;99.90
20946;DHT22;10632;51.276;7.116;2024-01-25T14:38:51;7.40;99.90
20946;DHT22;10632;51.276;7.116;2024-01-25T14:41:18;7.40;99.90
20946;DHT22;10632;51.276;7.116;2024-01-25T14:43:45;7.40;99.90
20946;DHT22;10632;51.276;7.116;2024-01-25T14:46:12;7.40;99.90
20946;DHT22;10632;51.276;7.116;2024-01-25T14:48:39;7.40;99.90
20946;DHT22;10632;51.276;7.116;2024-01-25T14:51:07;7.40;99.90
20946;DHT22;10632;51.276;7.116;2024-01-25T14:53:34;7.40;99.90
20946;DHT22;10632;51.276;7.116;2024-01-25T14:56:01;7.40;99.90
20946;DHT22;10632;51.276;7.116;2024-01-25T14:58:28;7.40;99.90
20946;DHT22;10632;51.276;7.116;2024-01-25T15:00:55;7.40;99.90
20946;DHT22;10632;51.276;7.116;2024-01-25T15:03:22;7.40;99.90
20946;DHT22;10632;51.276;7.116;2024-01-25T15:05:48;7.40;99.90
20946;DHT22;10632;51.276;7.116;2024-01-25T15:08:17;7.40;99.90
20946;DHT22;10632;51.276;7.116;2024-01-25T15:10:44;7.40;99.90
20946;DHT22;10632;51.276;7.116;2024-01-25T15:13:11;7.40;99.90
20946;DHT22;10632;51.276;7.116;2024-01-25T15:15:38;7.40;99.90
20946;DHT22;10632;51.276;7.116;2024-01-25T15:18:05;7.30;99.90
20946;DHT22;10632;51.276;7.116;2024-01-25T15:20:33;7.40;99.90
20946;DHT22;10632;51.276;7.116;2024-01-25T15:23:01;7.30;99.90
20946;DHT22;10632;51.276;7.116;2024-01-25T15:25:30;7.30;99.90
20946;DHT22;10632;51.276;7.116;2024-01-25T15:27:56;7.30;99.90
20946;DHT22;10632;51.276;7.116;2024-01-25T15:30:23;7.40;99.90
20946;DHT22;10632;51.276;7.116;2024-01-25T15:32:50;7.30;99.90
20946;DHT22;10632;51.276;7.116;2024-01-25T15:35:17;7.40;99.90
20946;DHT22;10632;51.276;7.116;2024-01-25T15:37:44;7.40;99.90
20946;DHT22;10632;51.276;7.116;2024-01-25T15:40:12;7.40;99.90
20946;DHT22;10632;51.276;7.116;2024-01-25T15:42:40;7.40;99.90
20946;DHT22;10632;51.276;7.116;2024-01-25T15:45:08;7.40;99.90
20946;DHT22;10632;51.276;7.116;2024-01-25T15:47:35;7.40;99.90
20946;DHT22;10632;51.276;7.116;2024-01-25T15:50:03;7.40;99.90
20946;DHT22;10632;51.276;7.116;2024-01-25T15:52:31;7.40;99.90